sensor_id;sensor_type;location;lat;lon;timestamp;pressure;altitude;pressure_sealevel;temperature;humidity
21504;BME280;10913;51.992;9.228;2023-01-25T00:01:52;102435.41;;;1.11;100.00
21504;BME280;10913;51.992;9.228;2023-01-25T00:04:18;102430.28;;;1.13;100.00
21504;BME280;10913;51.992;9.228;2023-01-25T00:06:44;102430.50;;;1.16;100.00
21504;BME280;10913;51.992;9.228;2023-01-25T00:09:10;102430.72;;;1.19;100.00
21504;BME280;10913;51.992;9.228;2023-01-25T00:11:35;102427.19;;;1.18;100.00
21504;BME280;10913;51.992;9.228;2023-01-25T00:14:02;102420.28;;;1.19;100.00
21504;BME280;10913;51.992;9.228;2023-01-25T00:16:27;102418.28;;;1.15;100.00
21504;BME280;10913;51.992;9.228;2023-01-25T00:18:53;102415.59;;;1.13;100.00
21504;BME280;10913;51.992;9.228;2023-01-25T00:21:21;102418.97;;;1.12;100.00
21504;BME280;10913;51.992;9.228;2023-01-25T00:23:47;102423.28;;;1.12;100.00
21504;BME280;10913;51.992;9.228;2023-01-25T00:26:13;102415.59;;;1.13;100.00
21504;BME280;10913;51.992;9.228;2023-01-25T00:28:38;102415.69;;;1.15;100.00
21504;BME280;10913;51.992;9.228;2023-01-25T00:31:05;102413.09;;;1.15;100.00
21504;BME280;10913;51.992;9.228;2023-01-25T00:33:38;102406.28;;;1.17;100.00
21504;BME280;10913;51.992;9.228;2023-01-25T00:39:01;102398.16;;;1.12;100.00
21504;BME280;10913;51.992;9.228;2023-01-25T00:41:26;102393.84;;;1.13;100.00
21504;BME280;10913;51.992;9.228;2023-01-25T00:43:52;102393.75;;;1.11;100.00
21504;BME280;10913;51.992;9.228;2023-01-25T00:46:17;102388.66;;;1.13;100.00
21504;BME280;10913;51.992;9.228;2023-01-25T00:48:43;102392.06;;;1.12;100.00
21504;BME280;10913;51.992;9.228;2023-01-25T00:51:09;102384.13;;;1.10;100.00
21504;BME280;10913;51.992;9.228;2023-01-25T00:53:34;102393.66;;;1.10;100.00
21504;BME280;10913;51.992;9.228;2023-01-25T00:56:00;102382.25;;;1.08;100.00
21504;BME280;10913;51.992;9.228;2023-01-25T00:58:25;102376.03;;;1.06;100.00
21504;BME280;10913;51.992;9.228;2023-01-25T01:00:52;102380.53;;;1.08;100.00
21504;BME280;10913;51.992;9.228;2023-01-25T01:03:18;102382.44;;;1.11;100.00
21504;BME280;10913;51.992;9.228;2023-01-25T01:05:43;102378.84;;;1.09;100.00
21504;BME280;10913;51.992;9.228;2023-01-25T01:08:10;102375.13;;;1.05;100.00
21504;BME280;10913;51.992;9.228;2023-01-25T01:10:35;102370.63;;;1.02;100.00
21504;BME280;10913;51.992;9.228;2023-01-25T01:13:01;102375.13;;;1.05;100.00
21504;BME280;10913;51.992;9.228;2023-01-25T01:15:26;102372.63;;;1.07;100.00
21504;BME280;10913;51.992;9.228;2023-01-25T01:17:51;102377.94;;;1.08;100.00
21504;BME280;10913;51.992;9.228;2023-01-25T01:20:17;102379.63;;;1.08;100.00
21504;BME280;10913;51.992;9.228;2023-01-25T01:22:42;102370.91;;;1.07;100.00
21504;BME280;10913;51.992;9.228;2023-01-25T01:25:08;102374.44;;;1.08;100.00
21504;BME280;10913;51.992;9.228;2023-01-25T01:27:33;102376.03;;;1.06;100.00
21504;BME280;10913;51.992;9.228;2023-01-25T01:29:58;102376.03;;;1.06;100.00
21504;BME280;10913;51.992;9.228;2023-01-25T01:32:24;102375.81;;;1.02;100.00
21504;BME280;10913;51.992;9.228;2023-01-25T01:34:49;102376.03;;;1.06;100.00
21504;BME280;10913;51.992;9.228;2023-01-25T01:37:14;102372.63;;;1.07;100.00
21504;BME280;10913;51.992;9.228;2023-01-25T01:39:40;102370.03;;;1.07;100.00
21504;BME280;10913;51.992;9.228;2023-01-25T01:42:05;102370.91;;;1.07;100.00
21504;BME280;10913;51.992;9.228;2023-01-25T01:44:50;102369.13;;;1.06;100.00
21504;BME280;10913;51.992;9.228;2023-01-25T01:47:28;102370.03;;;1.07;100.00
21504;BME280;10913;51.992;9.228;2023-01-25T01:49:59;102376.22;;;1.09;100.00
21504;BME280;10913;51.992;9.228;2023-01-25T01:52:30;102367.72;;;1.11;100.00
21504;BME280;10913;51.992;9.228;2023-01-25T01:55:20;102368.53;;;1.10;100.00
21504;BME280;10913;51.992;9.228;2023-01-25T01:57:51;102360.63;;;1.09;100.00
21504;BME280;10913;51.992;9.228;2023-01-25T02:00:38;102366.72;;;1.09;100.00
21504;BME280;10913;51.992;9.228;2023-01-25T02:03:05;102362.22;;;1.07;100.00
21504;BME280;10913;51.992;9.228;2023-01-25T02:05:46;102357.81;;;1.06;100.00
21504;BME280;10913;51.992;9.228;2023-01-25T02:08:14;102358.81;;;1.08;100.00
21504;BME280;10913;51.992;9.228;2023-01-25T02:10:41;102353.59;;;1.08;100.00
21504;BME280;10913;51.992;9.228;2023-01-25T02:13:08;102348.59;;;1.11;100.00
21504;BME280;10913;51.992;9.228;2023-01-25T02:15:37;102342.09;;;1.04;100.00
21504;BME280;10913;51.992;9.228;2023-01-25T02:18:05;102347.28;;;1.04;100.00
21504;BME280;10913;51.992;9.228;2023-01-25T02:20:35;102346.50;;;1.05;100.00
21504;BME280;10913;51.992;9.228;2023-01-25T02:25:45;102340.19;;;1.01;100.00
21504;BME280;10913;51.992;9.228;2023-01-25T02:28:13;102347.41;;;1.06;100.00
21504;BME280;10913;51.992;9.228;2023-01-25T02:30:41;102345.00;;;1.09;100.00
21504;BME280;10913;51.992;9.228;2023-01-25T02:33:06;102348.59;;;1.11;100.00
21504;BME280;10913;51.992;9.228;2023-01-25T02:38:08;102345.19;;;1.12;100.00
21504;BME280;10913;51.992;9.228;2023-01-25T02:40:43;102341.78;;;1.13;100.00
21504;BME280;10913;51.992;9.228;2023-01-25T02:43:09;102342.41;;;1.09;100.00
21504;BME280;10913;51.992;9.228;2023-01-25T02:45:34;102334.19;;;1.02;100.00
21504;BME280;10913;51.992;9.228;2023-01-25T02:48:00;102332.59;;;1.04;100.00
21504;BME280;10913;51.992;9.228;2023-01-25T02:50:25;102332.69;;;1.06;100.00
21504;BME280;10913;51.992;9.228;2023-01-25T02:52:50;102331.09;;;1.08;100.00
21504;BME280;10913;51.992;9.228;2023-01-25T02:55:16;102325.97;;;1.10;100.00
21504;BME280;10913;51.992;9.228;2023-01-25T02:57:41;102330.38;;;1.11;100.00
21504;BME280;10913;51.992;9.228;2023-01-25T03:00:07;102321.97;;;1.15;100.00
21504;BME280;10913;51.992;9.228;2023-01-25T03:02:33;102318.56;;;1.16;100.00
21504;BME280;10913;51.992;9.228;2023-01-25T03:04:58;102310.84;;;1.17;100.00
21504;BME280;10913;51.992;9.228;2023-01-25T03:07:24;102308.25;;;1.17;100.00
21504;BME280;10913;51.992;9.228;2023-01-25T03:09:49;102307.34;;;1.17;100.00
21504;BME280;10913;51.992;9.228;2023-01-25T03:12:15;102305.56;;;1.16;100.00
21504;BME280;10913;51.992;9.228;2023-01-25T03:14:40;102304.34;;;1.11;100.00
21504;BME280;10913;51.992;9.228;2023-01-25T03:17:05;102295.44;;;1.07;100.00
21504;BME280;10913;51.992;9.228;2023-01-25T03:19:31;102289.13;;;1.03;100.00
21504;BME280;10913;51.992;9.228;2023-01-25T03:21:56;102287.16;;;0.99;100.00
21504;BME280;10913;51.992;9.228;2023-01-25T03:24:23;102291.47;;;0.99;100.00
21504;BME280;10913;51.992;9.228;2023-01-25T03:26:48;102280.16;;;0.98;100.00
21504;BME280;10913;51.992;9.228;2023-01-25T03:29:32;102281.97;;;0.99;100.00
21504;BME280;10913;51.992;9.228;2023-01-25T03:31:57;102274.16;;;0.99;100.00
21504;BME280;10913;51.992;9.228;2023-01-25T03:34:23;102275.94;;;1.00;100.00
21504;BME280;10913;51.992;9.228;2023-01-25T03:36:48;102278.53;;;1.00;100.00
21504;BME280;10913;51.992;9.228;2023-01-25T03:39:13;102274.88;;;0.97;100.00
21504;BME280;10913;51.992;9.228;2023-01-25T03:41:39;102271.34;;;0.96;100.00
21504;BME280;10913;51.992;9.228;2023-01-25T03:44:04;102268.97;;;0.99;100.00
21504;BME280;10913;51.992;9.228;2023-01-25T03:46:29;102269.91;;;1.01;100.00
21504;BME280;10913;51.992;9.228;2023-01-25T03:48:55;102268.13;;;1.00;100.00
21504;BME280;10913;51.992;9.228;2023-01-25T03:51:20;102258.53;;;0.99;100.00
21504;BME280;10913;51.992;9.228;2023-01-25T03:53:45;102254.16;;;0.98;100.00
21504;BME280;10913;51.992;9.228;2023-01-25T03:56:11;102256.81;;;1.00;100.00
21504;BME280;10913;51.992;9.228;2023-01-25T03:58:43;102260.16;;;0.97;100.00
21504;BME280;10913;51.992;9.228;2023-01-25T04:01:09;102259.34;;;0.98;100.00
21504;BME280;10913;51.992;9.228;2023-01-25T04:03:34;102261.84;;;0.97;100.00
21504;BME280;10913;51.992;9.228;2023-01-25T04:06:00;102262.75;;;0.97;100.00
21504;BME280;10913;51.992;9.228;2023-01-25T04:08:26;102262.75;;;0.97;100.00
21504;BME280;10913;51.992;9.228;2023-01-25T04:11:28;102254.94;;;0.97;100.00
21504;BME280;10913;51.992;9.228;2023-01-25T04:13:46;102255.75;;;0.96;100.00
21504;BME280;10913;51.992;9.228;2023-01-25T04:16:12;102252.34;;;0.97;100.00
21504;BME280;10913;51.992;9.228;2023-01-25T04:18:37;102256.75;;;0.98;100.00
21504;BME280;10913;51.992;9.228;2023-01-25T04:21:04;102248.94;;;0.98;100.00
21504;BME280;10913;51.992;9.228;2023-01-25T04:23:29;102247.22;;;0.99;100.00
21504;BME280;10913;51.992;9.228;2023-01-25T04:25:57;102243.00;;;1.01;100.00
21504;BME280;10913;51.992;9.228;2023-01-25T04:28:23;102249.31;;;1.04;100.00
21504;BME280;10913;51.992;9.228;2023-01-25T04:30:49;102240.59;;;1.04;100.00
21504;BME280;10913;51.992;9.228;2023-01-25T04:33:15;102245.00;;;1.05;100.00
21504;BME280;10913;51.992;9.228;2023-01-25T04:35:40;102242.41;;;1.05;100.00
21504;BME280;10913;51.992;9.228;2023-01-25T04:38:06;102236.47;;;1.08;100.00
21504;BME280;10913;51.992;9.228;2023-01-25T04:40:32;102230.88;;;1.01;100.00
21504;BME280;10913;51.992;9.228;2023-01-25T04:42:57;102235.38;;;1.04;100.00
21504;BME280;10913;51.992;9.228;2023-01-25T04:45:24;102239.09;;;1.08;100.00
21504;BME280;10913;51.992;9.228;2023-01-25T04:47:57;102226.69;;;1.03;100.00
21504;BME280;10913;51.992;9.228;2023-01-25T04:50:24;102226.69;;;1.03;100.00
21504;BME280;10913;51.992;9.228;2023-01-25T04:52:49;102227.56;;;1.04;100.00
21504;BME280;10913;51.992;9.228;2023-01-25T04:55:15;102211.25;;;1.07;100.00
21504;BME280;10913;51.992;9.228;2023-01-25T04:57:40;102207.84;;;1.08;100.00
21504;BME280;10913;51.992;9.228;2023-01-25T05:00:06;102206.75;;;1.04;100.00
21504;BME280;10913;51.992;9.228;2023-01-25T05:02:31;102206.66;;;1.02;100.00
21504;BME280;10913;51.992;9.228;2023-01-25T05:04:57;102206.56;;;1.01;100.00
21504;BME280;10913;51.992;9.228;2023-01-25T05:07:22;102216.72;;;0.96;100.00
21504;BME280;10913;51.992;9.228;2023-01-25T05:09:48;102219.41;;;0.98;100.00
21504;BME280;10913;51.992;9.228;2023-01-25T05:12:13;102219.31;;;0.96;100.00
21504;BME280;10913;51.992;9.228;2023-01-25T05:14:39;102220.22;;;0.97;100.00
21504;BME280;10913;51.992;9.228;2023-01-25T05:17:05;102214.91;;;0.95;100.00
21504;BME280;10913;51.992;9.228;2023-01-25T05:19:31;102215.41;;;0.90;100.00
21504;BME280;10913;51.992;9.228;2023-01-25T05:21:57;102206.91;;;0.92;100.00
21504;BME280;10913;51.992;9.228;2023-01-25T05:24:30;102214.63;;;0.91;100.00
21504;BME280;10913;51.992;9.228;2023-01-25T05:26:56;102210.72;;;0.97;100.00
21504;BME280;10913;51.992;9.228;2023-01-25T05:31:54;102208.41;;;0.89;100.00
21504;BME280;10913;51.992;9.228;2023-01-25T05:34:20;102207.59;;;0.90;100.00
21504;BME280;10913;51.992;9.228;2023-01-25T05:36:48;102205.81;;;0.89;100.00
21504;BME280;10913;51.992;9.228;2023-01-25T05:39:14;102208.22;;;0.86;100.00
21504;BME280;10913;51.992;9.228;2023-01-25T05:41:39;102204.09;;;0.89;100.00
21504;BME280;10913;51.992;9.228;2023-01-25T05:44:04;102201.13;;;0.83;100.00
21504;BME280;10913;51.992;9.228;2023-01-25T05:46:30;102195.72;;;0.80;100.00
21504;BME280;10913;51.992;9.228;2023-01-25T05:48:55;102205.94;;;0.77;100.00
21504;BME280;10913;51.992;9.228;2023-01-25T05:51:21;102201.75;;;0.79;100.00
21504;BME280;10913;51.992;9.228;2023-01-25T05:53:46;102198.16;;;0.77;100.00
21504;BME280;10913;51.992;9.228;2023-01-25T05:56:12;102206.06;;;0.79;100.00
21504;BME280;10913;51.992;9.228;2023-01-25T05:58:37;102204.06;;;0.75;100.00
21504;BME280;10913;51.992;9.228;2023-01-25T06:01:05;102197.84;;;0.73;100.00
21504;BME280;10913;51.992;9.228;2023-01-25T06:03:30;102200.75;;;0.77;100.00
21504;BME280;10913;51.992;9.228;2023-01-25T06:05:57;102188.75;;;0.79;100.00
21504;BME280;10913;51.992;9.228;2023-01-25T06:08:23;102192.31;;;0.81;100.00
21504;BME280;10913;51.992;9.228;2023-01-25T06:10:49;102193.03;;;0.79;100.00
21504;BME280;10913;51.992;9.228;2023-01-25T06:13:15;102196.34;;;0.76;100.00
21504;BME280;10913;51.992;9.228;2023-01-25T06:15:41;102183.94;;;0.72;100.00
21504;BME280;10913;51.992;9.228;2023-01-25T06:18:06;102187.25;;;0.69;100.00
21504;BME280;10913;51.992;9.228;2023-01-25T06:20:32;102178.66;;;0.71;100.00
21504;BME280;10913;51.992;9.228;2023-01-25T06:22:58;102189.84;;;0.69;100.00
21504;BME280;10913;51.992;9.228;2023-01-25T06:25:23;102187.25;;;0.69;100.00
21504;BME280;10913;51.992;9.228;2023-01-25T06:27:48;102183.53;;;0.66;100.00
21504;BME280;10913;51.992;9.228;2023-01-25T06:30:14;102180.03;;;0.65;100.00
21504;BME280;10913;51.992;9.228;2023-01-25T06:32:39;102179.94;;;0.64;100.00
21504;BME280;10913;51.992;9.228;2023-01-25T06:35:05;102184.34;;;0.65;100.00
21504;BME280;10913;51.992;9.228;2023-01-25T06:37:30;102174.94;;;0.67;100.00
21504;BME280;10913;51.992;9.228;2023-01-25T06:39:55;102188.16;;;0.70;100.00
21504;BME280;10913;51.992;9.228;2023-01-25T06:42:23;102184.16;;;0.75;100.00
21504;BME280;10913;51.992;9.228;2023-01-25T06:44:48;102185.44;;;0.68;100.00
21504;BME280;10913;51.992;9.228;2023-01-25T06:47:14;102175.75;;;0.66;100.00
21504;BME280;10913;51.992;9.228;2023-01-25T06:49:40;102179.25;;;0.66;100.00
21504;BME280;10913;51.992;9.228;2023-01-25T06:52:05;102178.53;;;0.69;100.00
21504;BME280;10913;51.992;9.228;2023-01-25T06:54:33;102181.03;;;0.67;100.00
21504;BME280;10913;51.992;9.228;2023-01-25T06:56:58;102185.34;;;0.67;100.00
21504;BME280;10913;51.992;9.228;2023-01-25T06:59:23;102180.75;;;0.63;100.00
21504;BME280;10913;51.992;9.228;2023-01-25T07:01:49;102179.69;;;0.59;100.00
21504;BME280;10913;51.992;9.228;2023-01-25T07:04:14;102173.75;;;0.62;100.00
21504;BME280;10913;51.992;9.228;2023-01-25T07:06:39;102181.84;;;0.66;100.00
21504;BME280;10913;51.992;9.228;2023-01-25T07:09:07;102177.75;;;0.70;100.00
21504;BME280;10913;51.992;9.228;2023-01-25T07:11:34;102183.66;;;0.67;100.00
21504;BME280;10913;51.992;9.228;2023-01-25T07:13:59;102183.53;;;0.66;100.00
21504;BME280;10913;51.992;9.228;2023-01-25T07:16:25;102187.16;;;0.68;100.00
21504;BME280;10913;51.992;9.228;2023-01-25T07:18:50;102180.53;;;0.73;100.00
21504;BME280;10913;51.992;9.228;2023-01-25T07:21:21;102181.34;;;0.72;100.00
21504;BME280;10913;51.992;9.228;2023-01-25T07:23:50;102183.03;;;0.72;100.00
21504;BME280;10913;51.992;9.228;2023-01-25T07:26:22;102180.44;;;0.72;100.00
21504;BME280;10913;51.992;9.228;2023-01-25T07:28:48;102179.75;;;0.74;100.00
21504;BME280;10913;51.992;9.228;2023-01-25T07:31:16;102170.34;;;0.76;100.00
21504;BME280;10913;51.992;9.228;2023-01-25T07:33:42;102182.44;;;0.76;100.00
21504;BME280;10913;51.992;9.228;2023-01-25T07:36:09;102178.34;;;0.79;100.00
21504;BME280;10913;51.992;9.228;2023-01-25T07:38:35;102175.91;;;0.82;100.00
21504;BME280;10913;51.992;9.228;2023-01-25T07:41:01;102177.59;;;0.82;100.00
21504;BME280;10913;51.992;9.228;2023-01-25T07:43:27;102179.50;;;0.84;100.00
21504;BME280;10913;51.992;9.228;2023-01-25T07:46:08;102168.28;;;0.85;100.00
21504;BME280;10913;51.992;9.228;2023-01-25T07:48:38;102169.91;;;0.83;100.00
21504;BME280;10913;51.992;9.228;2023-01-25T07:51:06;102170.69;;;0.82;100.00
21504;BME280;10913;51.992;9.228;2023-01-25T07:53:47;102171.50;;;0.81;100.00
21504;BME280;10913;51.992;9.228;2023-01-25T07:56:13;102173.13;;;0.79;100.00
21504;BME280;10913;51.992;9.228;2023-01-25T07:58:38;102168.84;;;0.80;100.00
21504;BME280;10913;51.992;9.228;2023-01-25T08:01:12;102169.00;;;0.83;100.00
21504;BME280;10913;51.992;9.228;2023-01-25T08:03:38;102173.50;;;0.85;100.00
21504;BME280;10913;51.992;9.228;2023-01-25T08:06:03;102165.69;;;0.85;100.00
21504;BME280;10913;51.992;9.228;2023-01-25T08:08:31;102162.28;;;0.86;100.00
21504;BME280;10913;51.992;9.228;2023-01-25T08:11:00;102171.19;;;0.90;100.00
21504;BME280;10913;51.992;9.228;2023-01-25T08:13:25;102169.47;;;0.90;100.00
21504;BME280;10913;51.992;9.228;2023-01-25T08:15:54;102172.28;;;0.93;100.00
21504;BME280;10913;51.992;9.228;2023-01-25T08:18:20;102169.78;;;0.95;100.00
21504;BME280;10913;51.992;9.228;2023-01-25T08:20:45;102165.47;;;0.95;100.00
21504;BME280;10913;51.992;9.228;2023-01-25T08:23:10;102157.56;;;0.94;100.00
21504;BME280;10913;51.992;9.228;2023-01-25T08:25:36;102156.88;;;0.96;100.00
21504;BME280;10913;51.992;9.228;2023-01-25T08:28:01;102150.06;;;0.98;100.00
21504;BME280;10913;51.992;9.228;2023-01-25T08:30:26;102147.34;;;0.97;100.00
21504;BME280;10913;51.992;9.228;2023-01-25T08:32:52;102153.47;;;0.97;100.00
21504;BME280;10913;51.992;9.228;2023-01-25T08:35:18;102156.88;;;0.96;100.00
21504;BME280;10913;51.992;9.228;2023-01-25T08:37:43;102153.97;;;0.92;100.00
21504;BME280;10913;51.992;9.228;2023-01-25T08:40:09;102162.38;;;0.88;100.00
21504;BME280;10913;51.992;9.228;2023-01-25T08:42:34;102150.78;;;0.83;100.00
21504;BME280;10913;51.992;9.228;2023-01-25T08:45:00;102146.72;;;0.73;100.00
21504;BME280;10913;51.992;9.228;2023-01-25T08:47:26;102146.53;;;0.70;100.00
21504;BME280;10913;51.992;9.228;2023-01-25T08:49:52;102137.03;;;0.71;100.00
21504;BME280;10913;51.992;9.228;2023-01-25T08:52:19;102138.31;;;0.77;100.00
21504;BME280;10913;51.992;9.228;2023-01-25T08:54:44;102135.97;;;0.82;100.00
21504;BME280;10913;51.992;9.228;2023-01-25T08:57:10;102137.06;;;0.85;100.00
21504;BME280;10913;51.992;9.228;2023-01-25T08:59:35;102136.25;;;0.86;100.00
21504;BME280;10913;51.992;9.228;2023-01-25T09:02:01;102132.16;;;0.90;100.00
21504;BME280;10913;51.992;9.228;2023-01-25T09:04:26;102128.84;;;0.92;100.00
21504;BME280;10913;51.992;9.228;2023-01-25T09:06:53;102121.25;;;0.95;100.00
21504;BME280;10913;51.992;9.228;2023-01-25T09:09:19;102125.72;;;0.98;100.00
21504;BME280;10913;51.992;9.228;2023-01-25T09:11:46;102120.63;;;0.99;100.00
21504;BME280;10913;51.992;9.228;2023-01-25T09:14:12;102125.09;;;1.02;100.00
21504;BME280;10913;51.992;9.228;2023-01-25T09:16:38;102124.19;;;1.01;100.00
21504;BME280;10913;51.992;9.228;2023-01-25T09:19:04;102125.53;;;0.95;100.00
21504;BME280;10913;51.992;9.228;2023-01-25T09:21:30;102124.34;;;0.90;100.00
21504;BME280;10913;51.992;9.228;2023-01-25T09:23:57;102130.25;;;0.87;100.00
21504;BME280;10913;51.992;9.228;2023-01-25T09:26:22;102112.66;;;0.83;100.00
21504;BME280;10913;51.992;9.228;2023-01-25T09:28:50;102124.50;;;0.78;100.00
21504;BME280;10913;51.992;9.228;2023-01-25T09:31:16;102114.09;;;0.78;100.00
21504;BME280;10913;51.992;9.228;2023-01-25T09:33:42;102120.09;;;0.77;100.00
21504;BME280;10913;51.992;9.228;2023-01-25T09:36:08;102114.09;;;0.78;100.00
21504;BME280;10913;51.992;9.228;2023-01-25T09:38:34;102101.09;;;0.78;100.00
21504;BME280;10913;51.992;9.228;2023-01-25T09:46:08;102082.00;;;0.78;100.00
21504;BME280;10913;51.992;9.228;2023-01-25T09:48:55;102082.88;;;0.78;100.00
21504;BME280;10913;51.992;9.228;2023-01-25T09:51:59;102076.88;;;0.79;100.00
21504;BME280;10913;51.992;9.228;2023-01-25T09:54:19;102079.53;;;0.81;100.00
21504;BME280;10913;51.992;9.228;2023-01-25T09:56:47;102085.84;;;0.84;100.00
21504;BME280;10913;51.992;9.228;2023-01-25T09:59:17;102081.44;;;0.83;100.00
21504;BME280;10913;51.992;9.228;2023-01-25T10:02:03;102083.25;;;0.84;100.00
21504;BME280;10913;51.992;9.228;2023-01-25T10:04:38;102070.84;;;0.80;100.00
21504;BME280;10913;51.992;9.228;2023-01-25T10:07:28;102070.84;;;0.80;100.00
21504;BME280;10913;51.992;9.228;2023-01-25T10:10:06;102066.38;;;0.78;100.00
21504;BME280;10913;51.992;9.228;2023-01-25T10:12:37;102073.28;;;0.77;100.00
21504;BME280;10913;51.992;9.228;2023-01-25T10:15:19;102069.09;;;0.79;100.00
21504;BME280;10913;51.992;9.228;2023-01-25T10:17:51;102069.09;;;0.79;100.00
21504;BME280;10913;51.992;9.228;2023-01-25T10:20:32;102063.94;;;0.81;100.00
21504;BME280;10913;51.992;9.228;2023-01-25T10:25:42;102057.22;;;0.84;100.00
21504;BME280;10913;51.992;9.228;2023-01-25T10:31:10;102057.31;;;0.86;100.00
21504;BME280;10913;51.992;9.228;2023-01-25T10:33:42;102047.38;;;0.79;100.00
21504;BME280;10913;51.992;9.228;2023-01-25T10:36:13;102044.78;;;0.79;100.00
21504;BME280;10913;51.992;9.228;2023-01-25T10:38:41;102037.13;;;0.82;100.00
21504;BME280;10913;51.992;9.228;2023-01-25T10:43:57;102023.47;;;0.71;100.00
21504;BME280;10913;51.992;9.228;2023-01-25T10:52:21;102014.41;;;0.64;100.00
21504;BME280;10913;51.992;9.228;2023-01-25T10:55:03;102002.66;;;0.56;100.00
21504;BME280;10913;51.992;9.228;2023-01-25T10:57:31;102000.06;;;0.56;100.00
21504;BME280;10913;51.992;9.228;2023-01-25T10:59:59;101996.66;;;0.57;100.00
21504;BME280;10913;51.992;9.228;2023-01-25T11:02:46;101994.31;;;0.62;100.00
21504;BME280;10913;51.992;9.228;2023-01-25T11:07:50;101990.09;;;0.64;100.00
21504;BME280;10913;51.992;9.228;2023-01-25T11:10:36;101978.88;;;0.65;100.00
21504;BME280;10913;51.992;9.228;2023-01-25T11:15:40;101965.53;;;0.59;100.00
21504;BME280;10913;51.992;9.228;2023-01-25T11:18:15;101972.34;;;0.57;100.00
21504;BME280;10913;51.992;9.228;2023-01-25T11:20:42;101963.91;;;0.61;100.00
21504;BME280;10913;51.992;9.228;2023-01-25T11:23:37;101961.41;;;0.62;100.00
21504;BME280;10913;51.992;9.228;2023-01-25T11:28:36;101964.09;;;0.64;100.00
21504;BME280;10913;51.992;9.228;2023-01-25T11:31:01;101955.47;;;0.65;100.00
21504;BME280;10913;51.992;9.228;2023-01-25T11:33:26;101953.06;;;0.68;100.00
21504;BME280;10913;51.992;9.228;2023-01-25T11:41:41;101942.56;;;0.81;100.00
21504;BME280;10913;51.992;9.228;2023-01-25T11:47:00;101937.94;;;0.90;100.00
21504;BME280;10913;51.992;9.228;2023-01-25T11:49:34;101931.63;;;0.87;100.00
21504;BME280;10913;51.992;9.228;2023-01-25T11:54:55;101909.56;;;0.95;100.00
21504;BME280;10913;51.992;9.228;2023-01-25T12:00:28;101895.06;;;0.98;100.00
21504;BME280;10913;51.992;9.228;2023-01-25T12:03:14;101887.38;;;1.01;100.00
21504;BME280;10913;51.992;9.228;2023-01-25T12:08:29;101869.25;;;1.03;100.00
21504;BME280;10913;51.992;9.228;2023-01-25T12:10:59;101867.56;;;1.03;100.00
21504;BME280;10913;51.992;9.228;2023-01-25T12:13:46;101861.22;;;0.98;100.00
21504;BME280;10913;51.992;9.228;2023-01-25T12:16:26;101852.06;;;0.90;100.00
21504;BME280;10913;51.992;9.228;2023-01-25T12:30:23;101818.44;;;0.93;100.00
21504;BME280;10913;51.992;9.228;2023-01-25T12:33:04;101812.25;;;0.91;100.00
21504;BME280;10913;51.992;9.228;2023-01-25T12:35:36;101804.44;;;0.91;100.00
21504;BME280;10913;51.992;9.228;2023-01-25T12:38:14;101817.25;;;0.88;100.00
21504;BME280;10913;51.992;9.228;2023-01-25T12:40:51;101814.66;;;0.88;100.00
21504;BME280;10913;51.992;9.228;2023-01-25T12:43:24;101813.75;;;0.88;100.00
21504;BME280;10913;51.992;9.228;2023-01-25T12:45:52;101808.75;;;0.91;100.00
21504;BME280;10913;51.992;9.228;2023-01-25T12:48:23;101795.00;;;0.93;100.00
21504;BME280;10913;51.992;9.228;2023-01-25T12:50:55;101790.78;;;0.95;100.00
21504;BME280;10913;51.992;9.228;2023-01-25T12:53:44;101779.66;;;0.98;100.00
21504;BME280;10913;51.992;9.228;2023-01-25T12:59:10;101778.59;;;0.94;100.00
21504;BME280;10913;51.992;9.228;2023-01-25T13:01:41;101767.13;;;0.91;100.00
21504;BME280;10913;51.992;9.228;2023-01-25T13:07:02;101745.59;;;0.93;100.00
21504;BME280;10913;51.992;9.228;2023-01-25T13:12:25;101735.00;;;0.90;100.00
21504;BME280;10913;51.992;9.228;2023-01-25T13:14:54;101730.59;;;0.89;100.00
21504;BME280;10913;51.992;9.228;2023-01-25T13:17:29;101723.19;;;0.81;100.00
21504;BME280;10913;51.992;9.228;2023-01-25T13:19:56;101720.34;;;0.76;100.00
21504;BME280;10913;51.992;9.228;2023-01-25T13:25:27;101714.63;;;0.67;100.00
21504;BME280;10913;51.992;9.228;2023-01-25T13:30:56;101696.25;;;0.64;100.00
21504;BME280;10913;51.992;9.228;2023-01-25T13:33:33;101700.97;;;0.71;100.00
21504;BME280;10913;51.992;9.228;2023-01-25T13:39:40;101698.84;;;0.64;100.00
21504;BME280;10913;51.992;9.228;2023-01-25T13:44:35;101686.50;;;0.60;100.00
21504;BME280;10913;51.992;9.228;2023-01-25T13:47:05;101682.16;;;0.60;100.00
21504;BME280;10913;51.992;9.228;2023-01-25T13:49:59;101676.81;;;0.57;100.00
21504;BME280;10913;51.992;9.228;2023-01-25T13:52:27;101674.13;;;0.56;100.00
21504;BME280;10913;51.992;9.228;2023-01-25T13:54:56;101665.63;;;0.58;100.00
21504;BME280;10913;51.992;9.228;2023-01-25T13:57:28;101663.16;;;0.61;100.00
21504;BME280;10913;51.992;9.228;2023-01-25T14:00:13;101657.22;;;0.64;100.00
21504;BME280;10913;51.992;9.228;2023-01-25T14:02:41;101662.59;;;0.67;100.00
21504;BME280;10913;51.992;9.228;2023-01-25T14:05:22;101656.50;;;0.66;100.00
21504;BME280;10913;51.992;9.228;2023-01-25T14:07:51;101663.59;;;0.69;100.00
21504;BME280;10913;51.992;9.228;2023-01-25T14:10:21;101666.38;;;0.72;100.00
21504;BME280;10913;51.992;9.228;2023-01-25T14:12:53;101656.84;;;0.73;100.00
21504;BME280;10913;51.992;9.228;2023-01-25T14:15:28;101655.16;;;0.73;100.00
21504;BME280;10913;51.992;9.228;2023-01-25T14:18:16;101661.34;;;0.75;100.00
21504;BME280;10913;51.992;9.228;2023-01-25T14:20:48;101659.53;;;0.74;100.00
21504;BME280;10913;51.992;9.228;2023-01-25T14:23:32;101647.53;;;0.76;100.00
21504;BME280;10913;51.992;9.228;2023-01-25T14:25:58;101649.31;;;0.77;100.00